createdAt,value
2023-03-13T00:01:42.562Z,9.39
2023-03-13T00:04:10.587Z,9.39
2023-03-13T00:06:39.906Z,9.90
2023-03-13T00:09:08.940Z,10.03
2023-03-13T00:11:37.085Z,9.28
2023-03-13T00:14:06.210Z,9.62
2023-03-13T00:16:37.390Z,9.86
2023-03-13T00:19:09.296Z,9.57
2023-03-13T00:21:38.540Z,9.57
2023-03-13T00:24:06.755Z,9.95
2023-03-13T00:26:34.764Z,10.17
2023-03-13T00:29:02.910Z,10.14
2023-03-13T00:31:31.830Z,9.78
2023-03-13T00:34:00.613Z,9.61
2023-03-13T00:36:31.204Z,9.73
2023-03-13T00:38:59.863Z,10.21
2023-03-13T00:41:29.509Z,10.38
2023-03-13T00:43:57.801Z,10.43
2023-03-13T00:46:27.065Z,10.37
2023-03-13T00:48:55.117Z,10.42
2023-03-13T00:51:26.785Z,10.33
2023-03-13T00:53:57.050Z,10.37
2023-03-13T00:56:25.255Z,10.22
2023-03-13T00:58:55.532Z,9.92
2023-03-13T01:01:24.431Z,10.60
2023-03-13T01:03:53.350Z,10.31
2023-03-13T01:06:22.498Z,9.91
2023-03-13T01:08:51.036Z,10.41
2023-03-13T01:11:21.871Z,10.40
2023-03-13T01:13:50.406Z,10.36
2023-03-13T01:16:21.110Z,10.16
2023-03-13T01:18:50.539Z,10.05
2023-03-13T01:21:21.372Z,10.41
2023-03-13T01:23:50.106Z,10.06
2023-03-13T01:26:18.456Z,10.14
2023-03-13T01:28:48.351Z,10.16
2023-03-13T01:31:19.335Z,10.62
2023-03-13T01:33:48.291Z,10.32
2023-03-13T01:36:17.653Z,10.27
2023-03-13T01:38:49.018Z,10.14
2023-03-13T01:41:17.200Z,10.25
2023-03-13T01:43:46.136Z,10.66
2023-03-13T01:46:18.359Z,10.30
2023-03-13T01:49:10.974Z,10.70
2023-03-13T01:51:59.598Z,10.39
2023-03-13T01:54:33.624Z,10.58
2023-03-13T01:57:07.502Z,10.88
2023-03-13T01:59:39.148Z,10.35
2023-03-13T02:02:08.980Z,10.48
2023-03-13T02:04:39.424Z,10.82
2023-03-13T02:07:10.559Z,10.59
2023-03-13T02:09:42.008Z,10.65
2023-03-13T02:12:11.365Z,10.90
2023-03-13T02:14:42.942Z,11.26
2023-03-13T02:17:12.704Z,10.77
2023-03-13T02:19:43.193Z,10.77
2023-03-13T02:22:14.245Z,10.84
2023-03-13T02:24:46.257Z,10.97
2023-03-13T02:27:15.788Z,11.18
2023-03-13T02:29:45.022Z,11.10
2023-03-13T02:32:13.362Z,11.02
2023-03-13T02:34:42.461Z,11.48
2023-03-13T02:37:12.941Z,11.57
2023-03-13T02:39:43.532Z,11.26
2023-03-13T02:42:11.829Z,11.75
2023-03-13T02:44:44.454Z,11.41
2023-03-13T02:47:13.956Z,11.50
2023-03-13T02:49:42.083Z,11.86
2023-03-13T02:52:13.561Z,11.65
2023-03-13T02:54:44.839Z,11.95
2023-03-13T02:57:15.329Z,11.59
2023-03-13T02:59:44.740Z,12.17
2023-03-13T03:02:12.756Z,11.88
2023-03-13T03:04:41.448Z,12.08
2023-03-13T03:07:11.866Z,11.89
2023-03-13T03:09:40.391Z,12.08
2023-03-13T03:12:13.378Z,12.02
2023-03-13T03:14:45.501Z,11.91
2023-03-13T03:17:13.719Z,11.46
2023-03-13T03:19:41.797Z,12.04
2023-03-13T03:22:10.728Z,12.26
2023-03-13T03:24:38.778Z,11.95
2023-03-13T03:27:09.155Z,12.22
2023-03-13T03:29:43.337Z,12.08
2023-03-13T03:32:13.100Z,11.81
2023-03-13T03:34:41.281Z,12.53
2023-03-13T03:37:11.598Z,12.21
2023-03-13T03:39:40.790Z,12.64
2023-03-13T03:42:10.162Z,12.20
2023-03-13T03:44:39.279Z,12.44
2023-03-13T03:47:10.740Z,12.26
2023-03-13T03:49:44.507Z,12.48
2023-03-13T03:52:14.213Z,12.20
2023-03-13T03:54:44.165Z,12.21
2023-03-13T03:57:12.759Z,12.01
2023-03-13T03:59:44.216Z,11.79
2023-03-13T04:02:12.740Z,11.80
2023-03-13T04:04:44.397Z,11.62
2023-03-13T04:07:20.733Z,12.34
2023-03-13T04:09:50.087Z,12.29
2023-03-13T04:12:27.388Z,12.37
2023-03-13T04:14:56.723Z,12.58
2023-03-13T04:17:24.872Z,12.57
2023-03-13T04:19:54.479Z,12.44
2023-03-13T04:22:22.568Z,12.68
2023-03-13T04:24:55.748Z,12.79
2023-03-13T04:27:26.304Z,12.51
2023-03-13T04:29:54.581Z,12.72
2023-03-13T04:32:45.820Z,12.85
2023-03-13T04:35:41.677Z,12.71
2023-03-13T04:38:42.065Z,12.86
2023-03-13T04:41:28.838Z,12.51
2023-03-13T04:44:26.050Z,12.77
2023-03-13T04:47:05.296Z,12.76
2023-03-13T04:49:48.431Z,12.76
2023-03-13T04:52:24.135Z,12.72
2023-03-13T04:55:06.744Z,13.01
2023-03-13T04:57:53.410Z,12.80
2023-03-13T05:00:40.833Z,12.92
2023-03-13T05:03:35.215Z,12.64
2023-03-13T05:06:19.724Z,12.83
2023-03-13T05:09:07.425Z,12.91
2023-03-13T05:11:51.796Z,12.83
2023-03-13T05:14:52.588Z,12.82
2023-03-13T05:17:38.893Z,13.09
2023-03-13T05:20:30.822Z,12.77
2023-03-13T05:23:28.233Z,12.93
2023-03-13T05:26:06.133Z,12.89
2023-03-13T05:28:52.970Z,12.96
2023-03-13T05:31:30.827Z,12.95
2023-03-13T05:34:23.691Z,12.98
2023-03-13T05:37:12.531Z,13.14
2023-03-13T05:39:56.414Z,13.13
2023-03-13T05:42:40.111Z,13.10
2023-03-13T05:45:21.865Z,13.08
2023-03-13T05:47:49.880Z,13.33
2023-03-13T05:50:41.032Z,13.37
2023-03-13T05:53:27.825Z,13.19
2023-03-13T05:55:58.731Z,13.35
2023-03-13T05:58:46.513Z,13.43
2023-03-13T06:01:29.893Z,13.38
2023-03-13T06:04:06.283Z,13.31
2023-03-13T06:06:36.823Z,13.43
2023-03-13T06:09:06.013Z,13.73
2023-03-13T06:11:35.453Z,13.62
2023-03-13T06:14:07.625Z,13.53
2023-03-13T06:16:41.977Z,13.48
2023-03-13T06:19:16.349Z,13.46
2023-03-13T06:21:44.566Z,13.52
2023-03-13T06:24:14.824Z,13.66
2023-03-13T06:26:45.310Z,13.47
2023-03-13T06:29:14.700Z,13.33
2023-03-13T06:31:43.013Z,13.54
2023-03-13T06:34:12.221Z,13.47
2023-03-13T06:36:40.830Z,13.68
2023-03-13T06:39:09.171Z,13.60
2023-03-13T06:41:39.296Z,13.76
2023-03-13T06:44:07.304Z,13.95
2023-03-13T06:46:36.761Z,13.94
2023-03-13T06:49:05.868Z,14.24
2023-03-13T06:51:34.160Z,13.95
2023-03-13T06:54:03.088Z,14.08
2023-03-13T06:56:31.093Z,14.14
2023-03-13T06:59:00.110Z,14.10
2023-03-13T07:01:30.832Z,14.20
2023-03-13T07:04:00.259Z,14.12
2023-03-13T07:06:28.284Z,14.37
2023-03-13T07:08:56.535Z,14.24
2023-03-13T07:11:25.854Z,14.76
2023-03-13T07:14:06.583Z,14.60
2023-03-13T07:16:43.368Z,14.87
2023-03-13T07:19:12.951Z,14.34
2023-03-13T07:21:41.023Z,14.52
2023-03-13T07:24:09.460Z,14.39
2023-03-13T07:26:37.604Z,14.34
2023-03-13T07:29:07.891Z,14.61
2023-03-13T07:31:35.923Z,14.92
2023-03-13T07:34:04.011Z,15.10
2023-03-13T07:36:35.382Z,14.77
2023-03-13T07:39:03.570Z,15.33
2023-03-13T07:41:33.953Z,14.95
2023-03-13T07:44:02.502Z,15.10
2023-03-13T07:46:30.502Z,15.04
2023-03-13T07:48:58.537Z,15.46
2023-03-13T07:51:42.150Z,15.19
2023-03-13T07:54:12.631Z,15.40
2023-03-13T07:56:41.147Z,15.64
2023-03-13T07:59:09.524Z,15.43
2023-03-13T08:01:37.628Z,15.15
2023-03-13T08:04:06.121Z,15.36
2023-03-13T08:06:35.442Z,15.65
2023-03-13T08:09:03.495Z,15.95
2023-03-13T08:11:33.029Z,15.65
2023-03-13T08:14:01.155Z,15.63
2023-03-13T08:16:30.285Z,15.86
2023-03-13T08:18:59.091Z,15.65
2023-03-13T08:21:28.373Z,15.70
2023-03-13T08:23:57.701Z,15.95
2023-03-13T08:26:27.281Z,16.04
2023-03-13T08:28:57.491Z,16.11
2023-03-13T08:31:26.874Z,16.01
2023-03-13T08:33:55.063Z,16.58
2023-03-13T08:36:25.081Z,16.06
2023-03-13T08:38:54.238Z,16.44
2023-03-13T08:41:23.122Z,16.26
2023-03-13T08:43:53.293Z,17.00
2023-03-13T08:46:23.450Z,16.90
2023-03-13T08:48:51.875Z,16.80
2023-03-13T08:51:20.337Z,16.72
2023-03-13T08:53:48.348Z,17.02
2023-03-13T08:56:17.072Z,16.78
2023-03-13T08:58:45.452Z,16.48
2023-03-13T09:01:14.511Z,17.10
2023-03-13T09:03:44.294Z,17.09
2023-03-13T09:06:13.012Z,16.96
2023-03-13T09:08:41.868Z,17.22
2023-03-13T09:11:10.971Z,17.03
2023-03-13T09:13:40.216Z,17.24
2023-03-13T09:16:09.210Z,17.23
2023-03-13T09:18:37.744Z,17.56
2023-03-13T09:21:08.899Z,17.26
2023-03-13T09:23:39.014Z,17.62
2023-03-13T09:26:07.492Z,17.13
2023-03-13T09:28:35.747Z,17.68
2023-03-13T09:31:10.234Z,17.45
2023-03-13T09:33:38.974Z,17.23
2023-03-13T09:36:08.873Z,17.53
2023-03-13T09:38:37.263Z,18.01
2023-03-13T09:41:16.367Z,18.07
2023-03-13T09:43:48.994Z,18.69
2023-03-13T09:46:19.895Z,17.78
2023-03-13T09:48:49.912Z,17.75
2023-03-13T09:51:22.491Z,17.36
2023-03-13T09:53:53.159Z,17.69
2023-03-13T09:56:24.336Z,17.93
2023-03-13T09:58:56.500Z,17.99
2023-03-13T10:01:27.034Z,17.70
2023-03-13T10:04:02.209Z,17.75
2023-03-13T10:06:35.278Z,17.80
2023-03-13T10:09:04.176Z,18.53
2023-03-13T10:11:39.159Z,18.26
2023-03-13T10:14:12.181Z,18.18
2023-03-13T10:16:45.671Z,18.14
2023-03-13T10:19:16.741Z,18.49
2023-03-13T10:21:48.321Z,18.57
2023-03-13T10:24:19.282Z,18.32
2023-03-13T10:26:49.460Z,18.41
2023-03-13T10:29:22.693Z,18.64
2023-03-13T10:31:56.271Z,19.14
2023-03-13T10:34:24.912Z,19.01
2023-03-13T10:36:58.867Z,19.50
2023-03-13T10:39:28.010Z,19.48
2023-03-13T10:42:00.930Z,19.56
2023-03-13T10:44:33.419Z,19.23
2023-03-13T10:47:02.596Z,19.22
2023-03-13T10:49:31.924Z,19.47
2023-03-13T10:52:02.324Z,19.75
2023-03-13T10:54:31.551Z,19.74
2023-03-13T10:57:10.658Z,20.25
2023-03-13T10:59:41.283Z,20.51
2023-03-13T11:02:21.990Z,21.16
2023-03-13T11:04:53.821Z,20.11
2023-03-13T11:07:26.788Z,19.54
2023-03-13T11:10:02.970Z,20.46
2023-03-13T11:12:34.631Z,19.97
2023-03-13T11:15:03.722Z,20.11
2023-03-13T11:17:35.216Z,19.74
2023-03-13T11:20:09.312Z,19.50
2023-03-13T11:22:44.406Z,19.73
2023-03-13T11:25:21.490Z,20.42
2023-03-13T11:27:52.827Z,20.35
2023-03-13T11:30:29.047Z,20.24
2023-03-13T11:33:01.553Z,19.97
2023-03-13T11:35:37.696Z,20.47
2023-03-13T11:38:08.956Z,20.25
2023-03-13T11:40:40.251Z,20.97
2023-03-13T11:43:25.167Z,21.33
2023-03-13T11:46:09.783Z,20.76
2023-03-13T11:48:52.857Z,20.25
2023-03-13T11:51:25.306Z,20.69
2023-03-13T11:54:05.237Z,20.97
2023-03-13T11:56:38.922Z,20.81
2023-03-13T11:59:16.700Z,20.79
2023-03-13T12:01:47.768Z,20.49
2023-03-13T12:04:18.489Z,20.25
2023-03-13T12:06:48.177Z,20.55
2023-03-13T12:09:22.992Z,20.02
2023-03-13T12:11:55.169Z,21.36
2023-03-13T12:14:26.380Z,21.50
2023-03-13T12:16:59.020Z,21.16
2023-03-13T12:19:31.188Z,21.19
2023-03-13T12:22:05.555Z,21.01
2023-03-13T12:24:37.434Z,21.57
2023-03-13T12:27:10.971Z,21.68
2023-03-13T12:29:44.520Z,21.18
2023-03-13T12:32:15.701Z,21.98
2023-03-13T12:34:49.831Z,21.26
2023-03-13T12:37:22.418Z,22.14
2023-03-13T12:39:54.808Z,22.55
2023-03-13T12:42:32.028Z,21.89
2023-03-13T12:45:00.383Z,21.41
2023-03-13T12:47:32.834Z,21.18
2023-03-13T12:50:11.165Z,21.83
2023-03-13T12:52:48.468Z,22.30
2023-03-13T12:55:31.424Z,20.86
2023-03-13T12:58:11.269Z,21.55
2023-03-13T13:00:42.035Z,22.19
2023-03-13T13:03:16.546Z,21.79
2023-03-13T13:05:59.369Z,21.57
2023-03-13T13:08:28.297Z,22.36
2023-03-13T13:11:16.323Z,21.48
2023-03-13T13:13:45.767Z,21.42
2023-03-13T13:16:18.406Z,21.72
2023-03-13T13:18:49.005Z,22.18
2023-03-13T13:21:21.233Z,22.33
2023-03-13T13:23:53.843Z,22.31
2023-03-13T13:26:37.478Z,22.39
2023-03-13T13:29:20.436Z,22.70
2023-03-13T13:32:00.169Z,22.71
2023-03-13T13:34:49.221Z,22.91
2023-03-13T13:37:28.945Z,23.29
2023-03-13T13:40:17.838Z,23.52
2023-03-13T13:42:50.438Z,22.61
2023-03-13T13:45:25.343Z,23.33
2023-03-13T13:48:10.324Z,22.60
2023-03-13T13:50:39.734Z,22.57
2023-03-13T13:53:31.642Z,23.16
2023-03-13T13:55:59.755Z,22.07
2023-03-13T13:58:29.822Z,21.96
2023-03-13T14:01:00.608Z,22.40
2023-03-13T14:03:29.404Z,22.51
2023-03-13T14:06:02.669Z,22.82
2023-03-13T14:08:31.668Z,22.13
2023-03-13T14:11:17.649Z,22.93
2023-03-13T14:13:45.714Z,22.51
2023-03-13T14:16:24.220Z,21.69
2023-03-13T14:18:55.024Z,22.07
2023-03-13T14:21:24.981Z,22.27
2023-03-13T14:23:53.019Z,22.92
2023-03-13T14:26:22.067Z,23.13
2023-03-13T14:28:51.459Z,22.76
2023-03-13T14:31:23.466Z,23.94
2023-03-13T14:33:51.720Z,24.15
2023-03-13T14:36:20.480Z,23.37
2023-03-13T14:38:54.599Z,23.81
2023-03-13T14:41:29.335Z,22.75
2023-03-13T14:44:02.627Z,22.82
2023-03-13T14:46:32.337Z,23.40
2023-03-13T14:49:06.975Z,23.31
2023-03-13T14:51:39.266Z,22.94
2023-03-13T14:54:25.355Z,23.03
2023-03-13T14:57:03.979Z,23.12
2023-03-13T14:59:32.834Z,22.55
2023-03-13T15:02:05.429Z,22.98
2023-03-13T15:04:54.073Z,22.75
2023-03-13T15:07:23.399Z,22.75
2023-03-13T15:09:53.450Z,22.98
2023-03-13T15:12:23.951Z,23.03
2023-03-13T15:14:53.556Z,22.51
2023-03-13T15:17:23.960Z,22.72
2023-03-13T15:19:54.162Z,22.47
2023-03-13T15:22:28.950Z,22.33
2023-03-13T15:25:07.680Z,22.52
2023-03-13T15:27:37.067Z,22.40
2023-03-13T15:30:06.627Z,22.33
2023-03-13T15:32:36.930Z,22.05
2023-03-13T15:35:22.676Z,22.14
2023-03-13T15:37:51.622Z,22.47
2023-03-13T15:40:23.724Z,21.97
2023-03-13T15:42:52.169Z,22.06
2023-03-13T15:45:20.679Z,22.22
2023-03-13T15:47:51.511Z,21.97
2023-03-13T15:50:25.501Z,21.84
2023-03-13T15:52:54.232Z,22.44
2023-03-13T15:55:30.183Z,22.37
2023-03-13T15:57:58.697Z,22.68
2023-03-13T16:00:28.264Z,22.47
2023-03-13T16:02:56.712Z,22.66
2023-03-13T16:05:25.024Z,22.32
2023-03-13T16:07:53.382Z,22.35
2023-03-13T16:10:25.974Z,22.34
2023-03-13T16:12:54.844Z,22.26
2023-03-13T16:15:23.716Z,22.13
2023-03-13T16:17:54.295Z,22.12
2023-03-13T16:20:26.433Z,21.95
2023-03-13T16:22:54.755Z,21.77
2023-03-13T16:25:25.220Z,21.56
2023-03-13T16:27:56.192Z,21.48
2023-03-13T16:30:27.162Z,21.29
2023-03-13T16:32:55.616Z,21.37
2023-03-13T16:35:24.167Z,21.27
2023-03-13T16:37:55.085Z,21.01
2023-03-13T16:40:30.370Z,21.08
2023-03-13T16:42:58.684Z,21.31
2023-03-13T16:45:27.409Z,21.18
2023-03-13T16:47:55.798Z,20.85
2023-03-13T16:50:29.384Z,20.97
2023-03-13T16:52:57.938Z,20.87
2023-03-13T16:55:30.455Z,20.86
2023-03-13T16:57:59.860Z,20.89
2023-03-13T17:00:31.824Z,20.89
2023-03-13T17:03:01.449Z,20.82
2023-03-13T17:05:30.203Z,20.63
2023-03-13T17:08:00.816Z,20.62
2023-03-13T17:10:32.544Z,20.90
2023-03-13T17:13:05.470Z,20.56
2023-03-13T17:15:36.386Z,20.55
2023-03-13T17:18:05.206Z,20.74
2023-03-13T17:20:33.532Z,20.35
2023-03-13T17:23:02.102Z,20.34
2023-03-13T17:25:31.807Z,20.42
2023-03-13T17:28:00.190Z,20.24
2023-03-13T17:30:32.252Z,20.28
2023-03-13T17:33:00.950Z,20.02
2023-03-13T17:35:31.856Z,20.50
2023-03-13T17:38:00.136Z,20.22
2023-03-13T17:40:32.289Z,19.79
2023-03-13T17:43:00.643Z,19.71
2023-03-13T17:45:30.448Z,20.31
2023-03-13T17:47:58.788Z,20.18
2023-03-13T17:50:30.079Z,20.18
2023-03-13T17:52:58.349Z,20.00
2023-03-13T17:55:26.670Z,19.92
2023-03-13T17:57:56.283Z,18.55
2023-03-13T18:00:28.877Z,17.81
2023-03-13T18:02:59.434Z,17.26
2023-03-13T18:05:27.938Z,17.37
2023-03-13T18:07:57.340Z,17.16
2023-03-13T18:10:28.575Z,16.39
2023-03-13T18:13:03.434Z,16.30
2023-03-13T18:15:31.749Z,16.29
2023-03-13T18:18:00.162Z,16.09
2023-03-13T18:20:32.965Z,15.55
2023-03-13T18:23:01.244Z,-143.11
2023-03-13T18:25:30.719Z,-143.11
2023-03-13T18:28:00.670Z,-143.11
2023-03-13T18:30:29.145Z,-143.11
2023-03-13T18:32:57.553Z,-143.11
2023-03-13T18:35:26.167Z,-143.11
2023-03-13T18:37:54.435Z,-143.11
2023-03-13T18:40:24.953Z,-143.11
2023-03-13T18:42:53.373Z,-143.11
2023-03-13T18:45:26.876Z,-143.11
2023-03-13T18:47:55.273Z,-143.11
2023-03-13T18:50:28.034Z,-143.11
2023-03-13T18:52:58.256Z,-143.11
2023-03-13T18:55:28.787Z,-143.11
2023-03-13T18:57:57.654Z,-143.11
2023-03-13T19:00:29.697Z,-143.11
2023-03-13T19:02:58.104Z,-143.11
2023-03-13T19:05:26.563Z,-143.11
2023-03-13T19:07:54.919Z,-143.11
2023-03-13T19:10:26.338Z,-143.11
2023-03-13T19:12:56.708Z,-143.11
2023-03-13T19:15:29.852Z,-143.11
2023-03-13T19:18:02.700Z,-143.11
2023-03-13T19:20:31.646Z,-143.11
2023-03-13T19:23:00.750Z,-143.11
2023-03-13T19:25:29.842Z,-143.11
2023-03-13T19:27:58.130Z,-143.11
2023-03-13T19:30:30.023Z,-143.11
2023-03-13T19:32:58.725Z,-143.11
2023-03-13T19:35:27.247Z,-143.11
2023-03-13T19:37:56.086Z,-143.11
2023-03-13T19:40:28.373Z,-143.11
2023-03-13T19:42:58.846Z,-143.11
2023-03-13T19:45:27.891Z,-143.11
2023-03-13T19:47:59.986Z,-143.11
2023-03-13T19:50:31.626Z,-143.11
2023-03-13T19:53:00.215Z,-143.11
2023-03-13T19:55:28.731Z,-143.11
2023-03-13T19:57:57.067Z,-143.11
2023-03-13T20:00:27.859Z,-143.11
2023-03-13T20:02:56.321Z,-143.11
2023-03-13T20:05:27.872Z,-143.11
2023-03-13T20:07:57.367Z,-143.11
2023-03-13T20:10:25.933Z,-143.11
2023-03-13T20:12:54.548Z,-143.11
2023-03-13T20:15:22.904Z,-143.11
2023-03-13T20:17:51.305Z,-143.11
2023-03-13T20:20:20.499Z,-143.11
2023-03-13T20:22:50.186Z,-143.11
2023-03-13T20:25:20.627Z,-143.11
2023-03-13T20:27:49.061Z,-143.11
2023-03-13T20:30:17.860Z,-143.11
2023-03-13T20:32:58.531Z,-143.11
2023-03-13T20:35:28.956Z,-143.11
2023-03-13T20:38:00.745Z,-143.11
2023-03-13T20:40:29.125Z,-143.11
2023-03-13T20:42:59.054Z,-143.11
2023-03-13T20:45:28.535Z,-143.11
2023-03-13T20:47:57.023Z,-143.11
2023-03-13T20:50:25.811Z,-143.11
2023-03-13T20:52:55.560Z,-143.11
2023-03-13T20:55:30.311Z,-143.11
2023-03-13T20:57:58.706Z,-143.11
2023-03-13T21:00:27.437Z,-143.11
2023-03-13T21:02:55.955Z,-143.11
2023-03-13T21:05:24.432Z,-143.11
2023-03-13T21:07:53.135Z,-143.11
2023-03-13T21:10:25.218Z,-143.11
2023-03-13T21:12:58.288Z,-143.11
2023-03-13T21:15:29.122Z,-143.11
2023-03-13T21:17:57.523Z,-143.11
2023-03-13T21:20:26.780Z,-143.11
2023-03-13T21:22:55.205Z,-143.11
2023-03-13T21:25:24.084Z,-143.11
2023-03-13T21:27:52.481Z,-143.11
2023-03-13T21:30:22.731Z,-143.11
2023-03-13T21:32:52.916Z,-143.11
2023-03-13T21:35:21.447Z,-143.11
2023-03-13T21:37:52.211Z,-143.11
2023-03-13T21:40:20.536Z,-143.11
2023-03-13T21:42:48.883Z,-143.11
2023-03-13T21:45:17.184Z,-143.11
2023-03-13T21:47:48.358Z,-143.11
2023-03-13T21:50:16.646Z,-143.11
2023-03-13T21:52:45.538Z,-143.11
2023-03-13T21:55:14.163Z,-143.11
2023-03-13T21:57:45.898Z,-143.11
2023-03-13T22:02:40.953Z,11.48
2023-03-13T22:05:09.928Z,10.98
2023-03-13T22:07:38.256Z,10.86
2023-03-13T22:10:07.416Z,11.78
2023-03-13T22:12:37.174Z,11.65
2023-03-13T22:15:09.377Z,11.71
2023-03-13T22:17:37.692Z,11.85
2023-03-13T22:20:10.371Z,11.57
2023-03-13T22:22:38.705Z,11.15
2023-03-13T22:25:07.688Z,11.44
2023-03-13T22:27:36.152Z,11.57
2023-03-13T22:30:05.200Z,11.27
2023-03-13T22:32:33.691Z,10.78
2023-03-13T22:35:02.214Z,10.95
2023-03-13T22:37:31.964Z,10.95
2023-03-13T22:40:00.292Z,11.21
2023-03-13T22:42:31.009Z,11.16
2023-03-13T22:44:59.346Z,11.12
2023-03-13T22:47:27.668Z,11.43
2023-03-13T22:49:56.088Z,11.21
2023-03-13T22:52:29.045Z,11.16
2023-03-13T22:54:59.091Z,11.00
2023-03-13T22:57:29.063Z,11.15
2023-03-13T22:59:59.094Z,11.06
2023-03-13T23:02:28.167Z,10.98
2023-03-13T23:04:58.446Z,10.92
2023-03-13T23:07:28.345Z,11.21
2023-03-13T23:09:57.030Z,-143.11
2023-03-13T23:12:30.670Z,-143.11
2023-03-13T23:15:00.441Z,-143.11
2023-03-13T23:17:31.329Z,-143.11
2023-03-13T23:20:01.125Z,-143.11
2023-03-13T23:22:32.770Z,-143.11
2023-03-13T23:25:01.276Z,-143.11
2023-03-13T23:27:31.776Z,-143.11
2023-03-13T23:30:04.039Z,-143.11
2023-03-13T23:32:36.449Z,-143.11
2023-03-13T23:35:05.411Z,-143.11
2023-03-13T23:37:34.035Z,-143.11
2023-03-13T23:40:04.746Z,-143.11
2023-03-13T23:42:34.427Z,-143.11
2023-03-13T23:45:05.235Z,-143.11
2023-03-13T23:47:34.396Z,-143.11
2023-03-13T23:50:02.846Z,-143.11
2023-03-13T23:52:31.183Z,-143.11
2023-03-13T23:54:59.876Z,-143.11
2023-03-13T23:57:28.162Z,-143.11
2023-03-13T23:59:57.886Z,-143.11
